Alexandria Bay, New York
Current Conditions -  °F | °C
As of 3:48 PM on Saturday 25 Oct 2014 (Local Time) from KGTB Reporting Station
Light Rain Light Rain  
Wind Chill: 54°   Ceiling: 4100
Heat Index: 54°   Visibility: 3mi
Dew Point: 48°   Wind: 12mph
Humidity: 82%   Direction: 210°SSW
Pressure: 29.54"   Gusts: NA
Location:  44.34°N, 75.92°W
Report Text: KGTB 251948Z AUTO 21010KT 3SM -RA FEW002 BKN041 OVC050 12/09 A2954 RMK AO2
Loading
Personal Weather Stations






























Interactive Weather Map New forecast layout! Learn more

10-Day Weather Forecast

Advertisements
Track Severe Weather on mobile